sensor_id;sensor_type;location;lat;lon;timestamp;temperature;humidity
15937;DHT22;9163;48.818;8.976;2023-02-15T00:00:23;0.80;99.90
15937;DHT22;9163;48.818;8.976;2023-02-15T00:02:50;0.70;99.90
15937;DHT22;9163;48.818;8.976;2023-02-15T00:05:17;0.70;99.90
15937;DHT22;9163;48.818;8.976;2023-02-15T00:07:44;0.60;99.90
15937;DHT22;9163;48.818;8.976;2023-02-15T00:10:12;0.60;99.90
15937;DHT22;9163;48.818;8.976;2023-02-15T00:12:41;0.50;99.90
15937;DHT22;9163;48.818;8.976;2023-02-15T00:15:08;0.50;99.90
15937;DHT22;9163;48.818;8.976;2023-02-15T00:17:37;0.50;99.90
15937;DHT22;9163;48.818;8.976;2023-02-15T00:20:05;0.50;99.90
15937;DHT22;9163;48.818;8.976;2023-02-15T00:22:33;0.50;99.90
15937;DHT22;9163;48.818;8.976;2023-02-15T00:25:00;0.40;99.90
15937;DHT22;9163;48.818;8.976;2023-02-15T00:27:27;0.40;99.90
15937;DHT22;9163;48.818;8.976;2023-02-15T00:29:55;0.30;99.90
15937;DHT22;9163;48.818;8.976;2023-02-15T00:32:23;0.30;99.90
15937;DHT22;9163;48.818;8.976;2023-02-15T00:34:50;0.30;99.90
15937;DHT22;9163;48.818;8.976;2023-02-15T00:37:17;0.30;99.90
15937;DHT22;9163;48.818;8.976;2023-02-15T00:39:44;0.30;99.90
15937;DHT22;9163;48.818;8.976;2023-02-15T00:42:12;0.30;99.90
15937;DHT22;9163;48.818;8.976;2023-02-15T00:44:39;0.30;99.90
15937;DHT22;9163;48.818;8.976;2023-02-15T00:47:08;0.30;99.90
15937;DHT22;9163;48.818;8.976;2023-02-15T00:49:35;0.20;99.90
15937;DHT22;9163;48.818;8.976;2023-02-15T00:52:02;0.20;99.90
15937;DHT22;9163;48.818;8.976;2023-02-15T00:54:29;0.20;99.90
15937;DHT22;9163;48.818;8.976;2023-02-15T00:56:57;0.10;99.90
15937;DHT22;9163;48.818;8.976;2023-02-15T00:59:24;0.10;99.90
15937;DHT22;9163;48.818;8.976;2023-02-15T01:01:51;0.10;99.90
15937;DHT22;9163;48.818;8.976;2023-02-15T01:04:20;0.00;99.90
15937;DHT22;9163;48.818;8.976;2023-02-15T01:06:47;0.00;99.90
15937;DHT22;9163;48.818;8.976;2023-02-15T01:09:14;0.00;99.90
15937;DHT22;9163;48.818;8.976;2023-02-15T01:11:41;-0.10;99.90
15937;DHT22;9163;48.818;8.976;2023-02-15T01:14:09;0.00;99.90
15937;DHT22;9163;48.818;8.976;2023-02-15T01:16:36;0.00;99.90
15937;DHT22;9163;48.818;8.976;2023-02-15T01:19:04;0.00;99.90
15937;DHT22;9163;48.818;8.976;2023-02-15T01:21:33;0.00;99.90
15937;DHT22;9163;48.818;8.976;2023-02-15T01:24:01;0.10;99.90
15937;DHT22;9163;48.818;8.976;2023-02-15T01:26:28;0.30;99.90
15937;DHT22;9163;48.818;8.976;2023-02-15T01:28:56;0.30;99.90
15937;DHT22;9163;48.818;8.976;2023-02-15T01:31:23;0.20;99.90
15937;DHT22;9163;48.818;8.976;2023-02-15T01:33:50;0.20;99.90
15937;DHT22;9163;48.818;8.976;2023-02-15T01:36:18;0.10;99.90
15937;DHT22;9163;48.818;8.976;2023-02-15T01:38:46;0.00;99.90
15937;DHT22;9163;48.818;8.976;2023-02-15T01:41:13;-0.10;99.90
15937;DHT22;9163;48.818;8.976;2023-02-15T01:43:50;-0.10;99.90
15937;DHT22;9163;48.818;8.976;2023-02-15T01:46:19;-0.20;99.90
15937;DHT22;9163;48.818;8.976;2023-02-15T01:48:48;-0.20;99.90
15937;DHT22;9163;48.818;8.976;2023-02-15T01:51:20;-0.20;99.90
15937;DHT22;9163;48.818;8.976;2023-02-15T01:53:52;-0.30;99.90
15937;DHT22;9163;48.818;8.976;2023-02-15T01:56:23;-0.30;99.90
15937;DHT22;9163;48.818;8.976;2023-02-15T01:58:53;-0.40;99.90
15937;DHT22;9163;48.818;8.976;2023-02-15T02:01:24;-0.40;99.90
15937;DHT22;9163;48.818;8.976;2023-02-15T02:03:58;-0.40;99.90
15937;DHT22;9163;48.818;8.976;2023-02-15T02:06:26;-0.40;99.90
15937;DHT22;9163;48.818;8.976;2023-02-15T02:08:55;-0.50;99.90
15937;DHT22;9163;48.818;8.976;2023-02-15T02:11:23;-0.50;99.90
15937;DHT22;9163;48.818;8.976;2023-02-15T02:13:51;-0.60;99.90
15937;DHT22;9163;48.818;8.976;2023-02-15T02:16:23;-0.60;99.90
15937;DHT22;9163;48.818;8.976;2023-02-15T02:19:03;-0.60;99.90
15937;DHT22;9163;48.818;8.976;2023-02-15T02:22:07;-0.60;99.90
15937;DHT22;9163;48.818;8.976;2023-02-15T02:25:03;-0.70;99.90
15937;DHT22;9163;48.818;8.976;2023-02-15T02:27:37;-0.70;99.90
15937;DHT22;9163;48.818;8.976;2023-02-15T02:30:32;-0.70;99.90
15937;DHT22;9163;48.818;8.976;2023-02-15T02:33:31;-0.80;99.90
15937;DHT22;9163;48.818;8.976;2023-02-15T02:36:08;-0.90;99.90
15937;DHT22;9163;48.818;8.976;2023-02-15T02:38:48;-1.00;99.90
15937;DHT22;9163;48.818;8.976;2023-02-15T02:41:25;-1.00;99.90
15937;DHT22;9163;48.818;8.976;2023-02-15T02:43:57;-1.00;99.90
15937;DHT22;9163;48.818;8.976;2023-02-15T02:46:32;-1.10;99.90
15937;DHT22;9163;48.818;8.976;2023-02-15T02:49:02;-1.10;99.90
15937;DHT22;9163;48.818;8.976;2023-02-15T02:51:29;-1.20;99.90
15937;DHT22;9163;48.818;8.976;2023-02-15T02:54:00;-1.30;99.90
15937;DHT22;9163;48.818;8.976;2023-02-15T02:56:35;-1.30;99.90
15937;DHT22;9163;48.818;8.976;2023-02-15T02:59:06;-1.40;99.90
15937;DHT22;9163;48.818;8.976;2023-02-15T03:01:38;-1.50;99.90
15937;DHT22;9163;48.818;8.976;2023-02-15T03:04:09;-1.50;99.90
15937;DHT22;9163;48.818;8.976;2023-02-15T03:06:40;-1.50;99.90
15937;DHT22;9163;48.818;8.976;2023-02-15T03:09:12;-1.50;99.90
15937;DHT22;9163;48.818;8.976;2023-02-15T03:11:47;-1.40;99.90
15937;DHT22;9163;48.818;8.976;2023-02-15T03:14:17;-1.30;99.90
15937;DHT22;9163;48.818;8.976;2023-02-15T03:16:47;-1.30;99.90
15937;DHT22;9163;48.818;8.976;2023-02-15T03:19:19;-1.30;99.90
15937;DHT22;9163;48.818;8.976;2023-02-15T03:21:49;-1.50;99.90
15937;DHT22;9163;48.818;8.976;2023-02-15T03:24:26;-1.60;99.90
15937;DHT22;9163;48.818;8.976;2023-02-15T03:26:56;-1.70;99.90
15937;DHT22;9163;48.818;8.976;2023-02-15T03:29:26;-1.80;99.90
15937;DHT22;9163;48.818;8.976;2023-02-15T03:31:56;-1.70;99.90
15937;DHT22;9163;48.818;8.976;2023-02-15T03:34:26;-1.70;99.90
15937;DHT22;9163;48.818;8.976;2023-02-15T03:37:00;-1.80;99.90
15937;DHT22;9163;48.818;8.976;2023-02-15T03:39:32;-1.70;99.90
15937;DHT22;9163;48.818;8.976;2023-02-15T03:42:08;-1.70;99.90
15937;DHT22;9163;48.818;8.976;2023-02-15T03:44:44;-1.70;99.90
15937;DHT22;9163;48.818;8.976;2023-02-15T03:47:15;-1.90;99.90
15937;DHT22;9163;48.818;8.976;2023-02-15T03:49:48;-2.00;99.90
15937;DHT22;9163;48.818;8.976;2023-02-15T03:52:18;-2.00;99.90
15937;DHT22;9163;48.818;8.976;2023-02-15T03:54:45;-1.90;99.90
15937;DHT22;9163;48.818;8.976;2023-02-15T03:57:16;-2.00;99.90
15937;DHT22;9163;48.818;8.976;2023-02-15T04:00:04;-2.00;99.90
15937;DHT22;9163;48.818;8.976;2023-02-15T04:03:07;-1.90;99.90
15937;DHT22;9163;48.818;8.976;2023-02-15T04:05:37;-1.90;99.90
15937;DHT22;9163;48.818;8.976;2023-02-15T04:08:05;-1.80;99.90
15937;DHT22;9163;48.818;8.976;2023-02-15T04:10:32;-1.80;99.90
15937;DHT22;9163;48.818;8.976;2023-02-15T04:13:16;-1.70;99.90
15937;DHT22;9163;48.818;8.976;2023-02-15T04:15:44;-1.70;99.90
15937;DHT22;9163;48.818;8.976;2023-02-15T04:18:29;-1.70;99.90
15937;DHT22;9163;48.818;8.976;2023-02-15T04:21:16;-1.60;99.90
15937;DHT22;9163;48.818;8.976;2023-02-15T04:24:00;-1.60;99.90
15937;DHT22;9163;48.818;8.976;2023-02-15T04:26:45;-1.80;99.90
15937;DHT22;9163;48.818;8.976;2023-02-15T04:29:13;-1.80;99.90
15937;DHT22;9163;48.818;8.976;2023-02-15T04:31:41;-1.90;99.90
15937;DHT22;9163;48.818;8.976;2023-02-15T04:34:09;-2.10;99.90
15937;DHT22;9163;48.818;8.976;2023-02-15T04:36:38;-2.20;99.90
15937;DHT22;9163;48.818;8.976;2023-02-15T04:39:06;-2.30;99.90
15937;DHT22;9163;48.818;8.976;2023-02-15T04:41:34;-2.30;99.90
15937;DHT22;9163;48.818;8.976;2023-02-15T04:44:01;-2.30;99.90
15937;DHT22;9163;48.818;8.976;2023-02-15T04:46:29;-2.20;99.90
15937;DHT22;9163;48.818;8.976;2023-02-15T04:48:56;-2.30;99.90
15937;DHT22;9163;48.818;8.976;2023-02-15T04:51:24;-2.30;99.90
15937;DHT22;9163;48.818;8.976;2023-02-15T04:53:52;-2.30;99.90
15937;DHT22;9163;48.818;8.976;2023-02-15T04:56:20;-2.30;99.90
15937;DHT22;9163;48.818;8.976;2023-02-15T04:58:48;-2.20;99.90
15937;DHT22;9163;48.818;8.976;2023-02-15T05:01:15;-2.20;99.90
15937;DHT22;9163;48.818;8.976;2023-02-15T05:03:43;-2.10;99.90
15937;DHT22;9163;48.818;8.976;2023-02-15T05:06:10;-2.10;99.90
15937;DHT22;9163;48.818;8.976;2023-02-15T05:08:37;-2.00;99.90
15937;DHT22;9163;48.818;8.976;2023-02-15T05:11:05;-2.00;99.90
15937;DHT22;9163;48.818;8.976;2023-02-15T05:13:33;-2.00;99.90
15937;DHT22;9163;48.818;8.976;2023-02-15T05:16:00;-1.90;99.90
15937;DHT22;9163;48.818;8.976;2023-02-15T05:18:27;-1.90;99.90
15937;DHT22;9163;48.818;8.976;2023-02-15T05:20:54;-1.90;99.90
15937;DHT22;9163;48.818;8.976;2023-02-15T05:23:22;-1.90;99.90
15937;DHT22;9163;48.818;8.976;2023-02-15T05:25:50;-1.90;99.90
15937;DHT22;9163;48.818;8.976;2023-02-15T05:28:37;-2.00;99.90
15937;DHT22;9163;48.818;8.976;2023-02-15T05:31:07;-1.90;99.90
15937;DHT22;9163;48.818;8.976;2023-02-15T05:33:36;-1.90;99.90
15937;DHT22;9163;48.818;8.976;2023-02-15T05:36:05;-1.90;99.90
15937;DHT22;9163;48.818;8.976;2023-02-15T05:38:32;-1.80;99.90
15937;DHT22;9163;48.818;8.976;2023-02-15T05:41:00;-1.80;99.90
15937;DHT22;9163;48.818;8.976;2023-02-15T05:43:27;-1.80;99.90
15937;DHT22;9163;48.818;8.976;2023-02-15T05:45:55;-1.90;99.90
15937;DHT22;9163;48.818;8.976;2023-02-15T05:48:24;-1.90;99.90
15937;DHT22;9163;48.818;8.976;2023-02-15T05:50:59;-1.90;99.90
15937;DHT22;9163;48.818;8.976;2023-02-15T05:53:26;-1.80;99.90
15937;DHT22;9163;48.818;8.976;2023-02-15T05:55:54;-1.80;99.90
15937;DHT22;9163;48.818;8.976;2023-02-15T05:58:25;-1.70;99.90
15937;DHT22;9163;48.818;8.976;2023-02-15T06:00:53;-1.80;99.90
15937;DHT22;9163;48.818;8.976;2023-02-15T06:03:22;-1.80;99.90
15937;DHT22;9163;48.818;8.976;2023-02-15T06:05:49;-1.90;99.90
15937;DHT22;9163;48.818;8.976;2023-02-15T06:08:16;-1.90;99.90
15937;DHT22;9163;48.818;8.976;2023-02-15T06:10:45;-2.00;99.90
15937;DHT22;9163;48.818;8.976;2023-02-15T06:13:13;-2.10;99.90
15937;DHT22;9163;48.818;8.976;2023-02-15T06:15:40;-2.00;99.90
15937;DHT22;9163;48.818;8.976;2023-02-15T06:18:07;-2.00;99.90
15937;DHT22;9163;48.818;8.976;2023-02-15T06:20:36;-2.00;99.90
15937;DHT22;9163;48.818;8.976;2023-02-15T06:23:03;-2.00;99.90
15937;DHT22;9163;48.818;8.976;2023-02-15T06:25:30;-2.00;99.90
15937;DHT22;9163;48.818;8.976;2023-02-15T06:27:58;-1.90;99.90
15937;DHT22;9163;48.818;8.976;2023-02-15T06:30:25;-1.80;99.90
15937;DHT22;9163;48.818;8.976;2023-02-15T06:32:52;-1.80;99.90
15937;DHT22;9163;48.818;8.976;2023-02-15T06:35:19;-1.80;99.90
15937;DHT22;9163;48.818;8.976;2023-02-15T06:37:49;-1.70;99.90
15937;DHT22;9163;48.818;8.976;2023-02-15T06:40:16;-1.60;99.90
15937;DHT22;9163;48.818;8.976;2023-02-15T06:42:44;-1.50;99.90
15937;DHT22;9163;48.818;8.976;2023-02-15T06:45:11;-1.40;99.90
15937;DHT22;9163;48.818;8.976;2023-02-15T06:47:39;-1.30;99.90
15937;DHT22;9163;48.818;8.976;2023-02-15T06:50:07;-1.20;99.90
15937;DHT22;9163;48.818;8.976;2023-02-15T06:52:34;-1.10;99.90
15937;DHT22;9163;48.818;8.976;2023-02-15T06:55:04;-1.00;99.90
15937;DHT22;9163;48.818;8.976;2023-02-15T06:57:32;-0.80;99.90
15937;DHT22;9163;48.818;8.976;2023-02-15T06:59:59;-0.70;99.90
15937;DHT22;9163;48.818;8.976;2023-02-15T07:02:27;-0.60;99.90
15937;DHT22;9163;48.818;8.976;2023-02-15T07:04:54;-0.40;99.90
15937;DHT22;9163;48.818;8.976;2023-02-15T07:07:22;-0.30;99.90
15937;DHT22;9163;48.818;8.976;2023-02-15T07:09:49;-0.20;99.90
15937;DHT22;9163;48.818;8.976;2023-02-15T07:12:18;0.00;99.90
15937;DHT22;9163;48.818;8.976;2023-02-15T07:15:03;0.30;99.90
15937;DHT22;9163;48.818;8.976;2023-02-15T07:17:32;0.40;99.90
15937;DHT22;9163;48.818;8.976;2023-02-15T07:19:59;0.50;99.90
15937;DHT22;9163;48.818;8.976;2023-02-15T07:22:27;0.70;99.90
15937;DHT22;9163;48.818;8.976;2023-02-15T07:24:54;0.70;99.90
15937;DHT22;9163;48.818;8.976;2023-02-15T07:27:23;0.70;99.90
15937;DHT22;9163;48.818;8.976;2023-02-15T07:29:50;0.90;99.90
15937;DHT22;9163;48.818;8.976;2023-02-15T07:32:17;1.10;99.90
15937;DHT22;9163;48.818;8.976;2023-02-15T07:34:44;1.00;99.90
15937;DHT22;9163;48.818;8.976;2023-02-15T07:37:11;1.10;99.90
15937;DHT22;9163;48.818;8.976;2023-02-15T07:39:39;1.40;99.90
15937;DHT22;9163;48.818;8.976;2023-02-15T07:42:06;1.60;99.90
15937;DHT22;9163;48.818;8.976;2023-02-15T07:44:34;1.70;99.90
15937;DHT22;9163;48.818;8.976;2023-02-15T07:47:02;2.10;99.90
15937;DHT22;9163;48.818;8.976;2023-02-15T07:49:29;2.30;99.90
15937;DHT22;9163;48.818;8.976;2023-02-15T07:51:56;2.50;99.90
15937;DHT22;9163;48.818;8.976;2023-02-15T07:54:23;2.80;99.90
15937;DHT22;9163;48.818;8.976;2023-02-15T07:56:50;3.10;99.90
15937;DHT22;9163;48.818;8.976;2023-02-15T07:59:18;3.20;99.90
15937;DHT22;9163;48.818;8.976;2023-02-15T08:01:46;3.10;99.90
15937;DHT22;9163;48.818;8.976;2023-02-15T08:04:13;3.40;99.90
15937;DHT22;9163;48.818;8.976;2023-02-15T08:06:41;3.60;99.90
15937;DHT22;9163;48.818;8.976;2023-02-15T08:09:08;3.90;99.90
15937;DHT22;9163;48.818;8.976;2023-02-15T08:11:37;4.10;99.90
15937;DHT22;9163;48.818;8.976;2023-02-15T08:14:06;4.20;99.90
15937;DHT22;9163;48.818;8.976;2023-02-15T08:16:35;4.40;99.90
15937;DHT22;9163;48.818;8.976;2023-02-15T08:19:06;4.60;99.90
15937;DHT22;9163;48.818;8.976;2023-02-15T08:21:35;4.80;99.90
15937;DHT22;9163;48.818;8.976;2023-02-15T08:24:04;4.70;99.90
15937;DHT22;9163;48.818;8.976;2023-02-15T08:26:33;4.90;99.90
15937;DHT22;9163;48.818;8.976;2023-02-15T08:29:01;5.00;99.90
15937;DHT22;9163;48.818;8.976;2023-02-15T08:31:29;5.40;99.90
15937;DHT22;9163;48.818;8.976;2023-02-15T08:33:56;5.80;99.90
15937;DHT22;9163;48.818;8.976;2023-02-15T08:36:27;6.20;99.90
15937;DHT22;9163;48.818;8.976;2023-02-15T08:38:55;6.50;89.50
15937;DHT22;9163;48.818;8.976;2023-02-15T08:41:23;6.80;52.50
15937;DHT22;9163;48.818;8.976;2023-02-15T08:43:53;6.70;37.50
15937;DHT22;9163;48.818;8.976;2023-02-15T08:46:22;7.10;50.60
15937;DHT22;9163;48.818;8.976;2023-02-15T08:48:50;7.20;25.90
15937;DHT22;9163;48.818;8.976;2023-02-15T08:51:19;7.40;31.90
15937;DHT22;9163;48.818;8.976;2023-02-15T08:53:49;7.10;7.30
15937;DHT22;9163;48.818;8.976;2023-02-15T08:56:18;7.20;31.60
15937;DHT22;9163;48.818;8.976;2023-02-15T08:58:45;7.40;23.70
15937;DHT22;9163;48.818;8.976;2023-02-15T09:01:14;7.70;8.00
15937;DHT22;9163;48.818;8.976;2023-02-15T09:03:44;7.90;1.00
15937;DHT22;9163;48.818;8.976;2023-02-15T09:06:12;8.20;1.00
15937;DHT22;9163;48.818;8.976;2023-02-15T09:08:40;8.30;1.00
15937;DHT22;9163;48.818;8.976;2023-02-15T09:11:11;8.20;1.00
15937;DHT22;9163;48.818;8.976;2023-02-15T09:13:39;8.30;1.00
15937;DHT22;9163;48.818;8.976;2023-02-15T09:16:07;8.70;1.00
15937;DHT22;9163;48.818;8.976;2023-02-15T09:18:37;9.00;1.00
15937;DHT22;9163;48.818;8.976;2023-02-15T09:21:07;9.60;1.00
15937;DHT22;9163;48.818;8.976;2023-02-15T09:23:34;10.00;1.00
15937;DHT22;9163;48.818;8.976;2023-02-15T09:26:04;10.40;1.00
15937;DHT22;9163;48.818;8.976;2023-02-15T09:28:33;11.00;1.00
15937;DHT22;9163;48.818;8.976;2023-02-15T09:31:08;11.60;1.00
15937;DHT22;9163;48.818;8.976;2023-02-15T09:33:37;12.20;1.00
15937;DHT22;9163;48.818;8.976;2023-02-15T09:36:12;12.40;1.00
15937;DHT22;9163;48.818;8.976;2023-02-15T09:38:40;13.40;1.00
15937;DHT22;9163;48.818;8.976;2023-02-15T09:44:06;14.80;99.90
15937;DHT22;9163;48.818;8.976;2023-02-15T09:47:06;15.10;1.00
15937;DHT22;9163;48.818;8.976;2023-02-15T09:49:41;16.20;1.00
15937;DHT22;9163;48.818;8.976;2023-02-15T09:52:35;16.70;99.90
15937;DHT22;9163;48.818;8.976;2023-02-15T09:55:16;16.80;1.00
15937;DHT22;9163;48.818;8.976;2023-02-15T09:57:51;17.40;1.00
15937;DHT22;9163;48.818;8.976;2023-02-15T10:00:29;17.90;99.90
15937;DHT22;9163;48.818;8.976;2023-02-15T10:03:13;18.20;99.90
15937;DHT22;9163;48.818;8.976;2023-02-15T10:05:54;19.20;72.00
15937;DHT22;9163;48.818;8.976;2023-02-15T10:08:42;20.40;1.00
15937;DHT22;9163;48.818;8.976;2023-02-15T10:11:15;21.00;1.00
15937;DHT22;9163;48.818;8.976;2023-02-15T10:14:13;21.60;1.00
15937;DHT22;9163;48.818;8.976;2023-02-15T10:16:54;21.40;1.00
15937;DHT22;9163;48.818;8.976;2023-02-15T10:19:31;22.00;1.00
15937;DHT22;9163;48.818;8.976;2023-02-15T10:22:11;22.50;1.00
15937;DHT22;9163;48.818;8.976;2023-02-15T10:27:41;23.00;1.00
15937;DHT22;9163;48.818;8.976;2023-02-15T10:30:12;22.40;99.90
15937;DHT22;9163;48.818;8.976;2023-02-15T10:32:48;22.10;1.00
15937;DHT22;9163;48.818;8.976;2023-02-15T10:35:24;22.90;99.90
15937;DHT22;9163;48.818;8.976;2023-02-15T10:38:09;20.90;99.90
15937;DHT22;9163;48.818;8.976;2023-02-15T10:40:45;20.90;99.90
15937;DHT22;9163;48.818;8.976;2023-02-15T10:43:27;21.60;1.00
15937;DHT22;9163;48.818;8.976;2023-02-15T10:46:03;23.10;99.90
15937;DHT22;9163;48.818;8.976;2023-02-15T10:48:55;24.20;1.00
15937;DHT22;9163;48.818;8.976;2023-02-15T10:51:34;25.40;1.00
15937;DHT22;9163;48.818;8.976;2023-02-15T10:54:10;26.70;99.90
15937;DHT22;9163;48.818;8.976;2023-02-15T10:56:48;27.30;1.00
15937;DHT22;9163;48.818;8.976;2023-02-15T10:59:41;27.40;99.90
15937;DHT22;9163;48.818;8.976;2023-02-15T11:02:20;27.50;1.00
15937;DHT22;9163;48.818;8.976;2023-02-15T11:05:01;27.70;1.00
15937;DHT22;9163;48.818;8.976;2023-02-15T11:07:34;27.80;1.00
15937;DHT22;9163;48.818;8.976;2023-02-15T11:10:14;27.90;99.90
15937;DHT22;9163;48.818;8.976;2023-02-15T11:12:46;28.20;1.00
15937;DHT22;9163;48.818;8.976;2023-02-15T11:15:18;28.70;1.00
15937;DHT22;9163;48.818;8.976;2023-02-15T11:17:50;29.40;99.90
15937;DHT22;9163;48.818;8.976;2023-02-15T11:20:25;29.20;99.90
15937;DHT22;9163;48.818;8.976;2023-02-15T11:22:55;29.70;1.00
15937;DHT22;9163;48.818;8.976;2023-02-15T11:25:29;29.80;1.00
15937;DHT22;9163;48.818;8.976;2023-02-15T11:27:57;30.10;99.90
15937;DHT22;9163;48.818;8.976;2023-02-15T11:30:32;30.20;1.00
15937;DHT22;9163;48.818;8.976;2023-02-15T11:33:02;30.30;1.00
15937;DHT22;9163;48.818;8.976;2023-02-15T11:35:37;30.30;1.00
15937;DHT22;9163;48.818;8.976;2023-02-15T11:38:14;30.30;1.00
15937;DHT22;9163;48.818;8.976;2023-02-15T11:40:47;30.40;1.00
15937;DHT22;9163;48.818;8.976;2023-02-15T11:43:19;30.60;1.00
15937;DHT22;9163;48.818;8.976;2023-02-15T11:45:47;30.30;1.00
15937;DHT22;9163;48.818;8.976;2023-02-15T11:48:15;30.90;1.00
15937;DHT22;9163;48.818;8.976;2023-02-15T11:50:45;31.10;1.00
15937;DHT22;9163;48.818;8.976;2023-02-15T11:53:14;30.80;1.00
15937;DHT22;9163;48.818;8.976;2023-02-15T11:55:43;31.10;1.00
15937;DHT22;9163;48.818;8.976;2023-02-15T11:58:21;31.10;1.00
15937;DHT22;9163;48.818;8.976;2023-02-15T12:00:53;31.10;3.40
15937;DHT22;9163;48.818;8.976;2023-02-15T12:03:27;31.00;1.00
15937;DHT22;9163;48.818;8.976;2023-02-15T12:06:02;30.70;1.00
15937;DHT22;9163;48.818;8.976;2023-02-15T12:08:37;31.20;6.20
15937;DHT22;9163;48.818;8.976;2023-02-15T12:11:09;30.50;16.20
15937;DHT22;9163;48.818;8.976;2023-02-15T12:13:54;31.20;12.50
15937;DHT22;9163;48.818;8.976;2023-02-15T12:16:21;30.80;14.20
15937;DHT22;9163;48.818;8.976;2023-02-15T12:18:50;30.80;20.50
15937;DHT22;9163;48.818;8.976;2023-02-15T12:21:28;31.20;43.00
15937;DHT22;9163;48.818;8.976;2023-02-15T12:23:58;31.20;42.40
15937;DHT22;9163;48.818;8.976;2023-02-15T12:26:28;31.70;42.40
15937;DHT22;9163;48.818;8.976;2023-02-15T12:28:58;31.00;41.90
15937;DHT22;9163;48.818;8.976;2023-02-15T12:31:30;31.90;42.20
15937;DHT22;9163;48.818;8.976;2023-02-15T12:34:01;32.40;41.10
15937;DHT22;9163;48.818;8.976;2023-02-15T12:36:32;32.20;41.20
15937;DHT22;9163;48.818;8.976;2023-02-15T12:39:21;32.30;40.10
15937;DHT22;9163;48.818;8.976;2023-02-15T12:42:01;31.80;40.40
15937;DHT22;9163;48.818;8.976;2023-02-15T12:44:30;32.50;40.00
15937;DHT22;9163;48.818;8.976;2023-02-15T12:47:01;32.40;39.60
15937;DHT22;9163;48.818;8.976;2023-02-15T12:49:30;32.50;39.80
15937;DHT22;9163;48.818;8.976;2023-02-15T12:52:00;32.70;40.00
15937;DHT22;9163;48.818;8.976;2023-02-15T12:57:22;32.80;38.90
15937;DHT22;9163;48.818;8.976;2023-02-15T12:59:52;32.90;39.10
15937;DHT22;9163;48.818;8.976;2023-02-15T13:02:26;33.20;38.50
15937;DHT22;9163;48.818;8.976;2023-02-15T13:04:56;33.60;38.60
15937;DHT22;9163;48.818;8.976;2023-02-15T13:07:30;33.40;38.20
15937;DHT22;9163;48.818;8.976;2023-02-15T13:09:58;32.30;38.10
15937;DHT22;9163;48.818;8.976;2023-02-15T13:12:27;32.20;38.20
15937;DHT22;9163;48.818;8.976;2023-02-15T13:14:57;32.70;37.90
15937;DHT22;9163;48.818;8.976;2023-02-15T13:17:27;32.50;38.40
15937;DHT22;9163;48.818;8.976;2023-02-15T13:19:58;32.70;37.90
15937;DHT22;9163;48.818;8.976;2023-02-15T13:22:36;33.00;37.10
15937;DHT22;9163;48.818;8.976;2023-02-15T13:25:11;32.50;37.50
15937;DHT22;9163;48.818;8.976;2023-02-15T13:27:41;33.20;37.00
15937;DHT22;9163;48.818;8.976;2023-02-15T13:30:22;32.90;36.20
15937;DHT22;9163;48.818;8.976;2023-02-15T13:32:54;33.30;36.20
15937;DHT22;9163;48.818;8.976;2023-02-15T13:35:23;32.80;36.20
15937;DHT22;9163;48.818;8.976;2023-02-15T13:38:09;33.50;36.10
15937;DHT22;9163;48.818;8.976;2023-02-15T13:40:42;33.70;35.40
15937;DHT22;9163;48.818;8.976;2023-02-15T13:43:23;32.70;35.10
15937;DHT22;9163;48.818;8.976;2023-02-15T13:46:04;33.40;35.70
15937;DHT22;9163;48.818;8.976;2023-02-15T13:48:41;32.40;35.00
15937;DHT22;9163;48.818;8.976;2023-02-15T13:51:19;32.30;36.20
15937;DHT22;9163;48.818;8.976;2023-02-15T13:54:02;31.00;36.40
15937;DHT22;9163;48.818;8.976;2023-02-15T13:56:43;31.40;37.30
15937;DHT22;9163;48.818;8.976;2023-02-15T13:59:28;32.10;37.00
15937;DHT22;9163;48.818;8.976;2023-02-15T14:01:58;32.60;36.30
15937;DHT22;9163;48.818;8.976;2023-02-15T14:04:53;32.90;36.10
15937;DHT22;9163;48.818;8.976;2023-02-15T14:07:38;33.30;35.60
15937;DHT22;9163;48.818;8.976;2023-02-15T14:10:27;32.70;35.30
15937;DHT22;9163;48.818;8.976;2023-02-15T14:13:05;33.10;36.00
15937;DHT22;9163;48.818;8.976;2023-02-15T14:15:44;33.00;35.60
15937;DHT22;9163;48.818;8.976;2023-02-15T14:18:22;33.10;35.40
15937;DHT22;9163;48.818;8.976;2023-02-15T14:21:00;32.90;35.70
15937;DHT22;9163;48.818;8.976;2023-02-15T14:23:42;32.90;36.40
15937;DHT22;9163;48.818;8.976;2023-02-15T14:26:18;33.00;35.80
15937;DHT22;9163;48.818;8.976;2023-02-15T14:28:54;33.20;35.60
15937;DHT22;9163;48.818;8.976;2023-02-15T14:31:29;32.40;36.20
15937;DHT22;9163;48.818;8.976;2023-02-15T14:33:57;33.00;36.20
15937;DHT22;9163;48.818;8.976;2023-02-15T14:36:26;33.20;35.50
15937;DHT22;9163;48.818;8.976;2023-02-15T14:39:01;33.60;35.20
15937;DHT22;9163;48.818;8.976;2023-02-15T14:41:37;34.20;34.80
15937;DHT22;9163;48.818;8.976;2023-02-15T14:44:10;34.10;34.90
15937;DHT22;9163;48.818;8.976;2023-02-15T14:46:45;34.00;34.60
15937;DHT22;9163;48.818;8.976;2023-02-15T14:49:25;33.00;34.50
15937;DHT22;9163;48.818;8.976;2023-02-15T14:51:59;32.40;35.30
15937;DHT22;9163;48.818;8.976;2023-02-15T14:55:00;32.00;36.20
15937;DHT22;9163;48.818;8.976;2023-02-15T14:57:31;32.30;36.50
15937;DHT22;9163;48.818;8.976;2023-02-15T15:00:01;32.40;35.90
15937;DHT22;9163;48.818;8.976;2023-02-15T15:02:45;32.30;36.10
15937;DHT22;9163;48.818;8.976;2023-02-15T15:05:18;32.60;36.00
15937;DHT22;9163;48.818;8.976;2023-02-15T15:07:48;32.60;35.90
15937;DHT22;9163;48.818;8.976;2023-02-15T15:10:38;31.70;35.90
15937;DHT22;9163;48.818;8.976;2023-02-15T15:13:36;31.70;36.20
15937;DHT22;9163;48.818;8.976;2023-02-15T15:16:27;31.60;36.40
15937;DHT22;9163;48.818;8.976;2023-02-15T15:18:55;31.30;36.80
15937;DHT22;9163;48.818;8.976;2023-02-15T15:21:56;30.40;36.90
15937;DHT22;9163;48.818;8.976;2023-02-15T15:24:52;29.90;37.60
15937;DHT22;9163;48.818;8.976;2023-02-15T15:27:45;29.30;38.00
15937;DHT22;9163;48.818;8.976;2023-02-15T15:34:15;28.60;38.60
15937;DHT22;9163;48.818;8.976;2023-02-15T15:37:25;28.10;39.40
15937;DHT22;9163;48.818;8.976;2023-02-15T15:40:21;28.50;39.70
15937;DHT22;9163;48.818;8.976;2023-02-15T15:43:13;28.30;39.20
15937;DHT22;9163;48.818;8.976;2023-02-15T15:46:13;27.40;39.80
15937;DHT22;9163;48.818;8.976;2023-02-15T15:48:45;26.70;40.50
15937;DHT22;9163;48.818;8.976;2023-02-15T15:51:18;26.40;40.90
15937;DHT22;9163;48.818;8.976;2023-02-15T15:53:48;25.60;41.70
15937;DHT22;9163;48.818;8.976;2023-02-15T15:56:21;24.90;42.60
15937;DHT22;9163;48.818;8.976;2023-02-15T15:58:53;24.50;43.20
15937;DHT22;9163;48.818;8.976;2023-02-15T16:01:26;24.10;43.80
15937;DHT22;9163;48.818;8.976;2023-02-15T16:03:55;23.30;44.50
15937;DHT22;9163;48.818;8.976;2023-02-15T16:06:29;22.60;45.20
15937;DHT22;9163;48.818;8.976;2023-02-15T16:08:57;22.50;45.80
15937;DHT22;9163;48.818;8.976;2023-02-15T16:11:25;21.70;46.60
15937;DHT22;9163;48.818;8.976;2023-02-15T16:13:54;20.30;48.90
15937;DHT22;9163;48.818;8.976;2023-02-15T16:16:22;19.60;50.50
15937;DHT22;9163;48.818;8.976;2023-02-15T16:18:51;18.30;52.60
15937;DHT22;9163;48.818;8.976;2023-02-15T16:21:21;16.90;55.30
15937;DHT22;9163;48.818;8.976;2023-02-15T16:24:06;15.50;59.20
15937;DHT22;9163;48.818;8.976;2023-02-15T16:27:12;14.50;62.60
15937;DHT22;9163;48.818;8.976;2023-02-15T16:29:41;13.50;67.90
15937;DHT22;9163;48.818;8.976;2023-02-15T16:32:18;12.90;71.40
15937;DHT22;9163;48.818;8.976;2023-02-15T16:34:53;12.40;75.00
15937;DHT22;9163;48.818;8.976;2023-02-15T16:37:22;12.10;78.10
15937;DHT22;9163;48.818;8.976;2023-02-15T16:39:54;11.70;82.50